Pride — ZDFD7 — position and weather

sailwx.info

Track history (hours):
 
Tides and Currents Weather Stations Pressure Air Temp Water Temp Dewpoint Dewpoint Depression Visibility Wind Speed Wind Dir Waves Ship Positions

Pride

Last reported at 2015-Sep-04 20:25 UTC. Time now 2015-Sep-04 21:03 UTC.
Position N 58°36' E 012°41'.

Length 88 m; draft 3.5 m.

Type: Cargo ship. MMSI: 236166000.

Date/timePositionNaut miles runAvg speedWind from/ knotsBaromVisibWave heightAir tempDewpointWater temp
2015-Sep-04 20:25N 58°36' E 012°41'910.7
2015-Sep-04 19:33N 58°29' E 012°30'9 8.8
2015-Sep-04 18:33N 58°22' E 012°19'4 4.3
2015-Sep-04 17:34N 58°18' E 012°18'2 2.2
2015-Sep-04 16:33N 58°16' E 012°15'3 3.2
2015-Sep-04 15:33N 58°14' E 012°11'6 5.9
2015-Sep-04 14:33N 58°08' E 012°07'6 5.7
2015-Sep-04 13:33N 58°03' E 012°09'8 8.0
2015-Sep-04 12:33N 57°55' E 012°03'7 7.4
2015-Sep-04 11:33N 57°48' E 012°01'5 5.2
2015-Sep-04 10:33N 57°43' E 011°58'7 7.3
2015-Sep-04 09:33N 57°40' E 011°46'8 7.9
2015-Sep-04 08:33N 57°37' E 011°32'7 6.7
2015-Sep-04 07:33N 57°44' E 011°28'7 6.6
2015-Sep-04 06:34N 57°49' E 011°22'6 6.0
2015-Sep-04 05:33N 57°55' E 011°17'7 6.5
2015-Sep-04 04:33N 58°01' E 011°12'6 6.3
2015-Sep-04 03:33N 58°07' E 011°08'6 6.1
2015-Sep-04 02:33N 58°12' E 011°04'8 8.1
2015-Sep-04 01:33N 58°20' E 010°59'8 8.1
2015-Sep-04 00:33N 58°28' E 010°54'8 7.6
2015-Sep-03 23:33N 58°35' E 010°50'9 8.7
2015-Sep-03 22:33N 58°43' E 010°44'9 9.3
2015-Sep-03 21:33N 58°52' E 010°39'1010.1
2015-Sep-03 20:33N 59°02' E 010°34'7 7.5
2015-Sep-03 19:34N 59°09' E 010°37'1010.3
2015-Sep-03 18:33N 59°20' E 010°35'1010.1
2015-Sep-03 17:33N 59°30' E 010°34'10 9.9
2015-Sep-03 16:32N 59°40' E 010°37'  
2015-Aug-30 22:08N 59°40' E 010°37'610.3
2015-Aug-30 21:34N 59°34' E 010°38'10 9.9
2015-Aug-30 20:34N 59°24' E 010°34'10 9.8
2015-Aug-30 19:33N 59°14' E 010°38'9 9.2
2015-Aug-30 18:34N 59°05' E 010°34'9 8.8
2015-Aug-30 17:33N 58°57' E 010°30'9 9.4
2015-Aug-30 16:34N 58°50' E 010°18'9 8.9
2015-Aug-30 15:33N 58°43' E 010°07'186 9.6
2015-Aug-29 20:15N 56°13' E 006°44'7 9.7
2015-Aug-29 19:33N 56°06' E 006°39'10 9.9
2015-Aug-29 18:33N 55°57' E 006°32'1010.0
2015-Aug-29 17:32N 55°48' E 006°25'1010.0
2015-Aug-29 16:32N 55°39' E 006°18'1010.0
2015-Aug-29 15:32N 55°30' E 006°11'1010.1
2015-Aug-29 14:33N 55°20' E 006°04'1010.2
2015-Aug-29 13:32N 55°11' E 005°57'6110.1
2015-Aug-29 07:33N 54°15' E 005°15'1010.2
2015-Aug-29 06:33N 54°06' E 005°08'1210.2
2015-Aug-29 05:21N 53°54' E 005°01'5910.2
2015-Aug-28 23:32N 53°00' E 004°21'9 9.1
2015-Aug-28 22:33N 52°52' E 004°16'9 8.7
2015-Aug-28 21:33N 52°44' E 004°10'9 8.6
2015-Aug-28 20:34N 52°36' E 004°18'9 9.1
2015-Aug-28 19:33N 52°29' E 004°27'6 6.0
2015-Aug-28 18:33N 52°28' E 004°36'9 8.5
2015-Aug-28 17:33N 52°25' E 004°49'2 1.9
2015-Aug-28 16:32N 52°24' E 004°52'0 0.0
2015-Aug-28 15:26N 52°24' E 004°52'0 0.0
2015-Aug-28 14:31N 52°24' E 004°52'0 0.0
2015-Aug-28 13:31N 52°24' E 004°52'0 0.0
2015-Aug-28 12:34N 52°24' E 004°52'0 0.0
2015-Aug-28 11:26N 52°24' E 004°52'0 0.0
2015-Aug-28 10:27N 52°24' E 004°52'0 0.0
2015-Aug-28 09:33N 52°24' E 004°52'0 0.0
2015-Aug-28 08:29N 52°24' E 004°52'0 0.0
2015-Aug-28 07:31N 52°24' E 004°52'0 0.0
2015-Aug-28 06:29N 52°24' E 004°52'0 0.2
2015-Aug-28 05:33N 52°24' E 004°52'0 0.0
2015-Aug-28 04:30N 52°24' E 004°52'0 0.0
2015-Aug-28 03:33N 52°24' E 004°52'0 0.0
2015-Aug-28 02:28N 52°24' E 004°52'0 0.0
2015-Aug-28 01:28N 52°24' E 004°52'0 0.0
2015-Aug-28 00:33N 52°24' E 004°52'0 0.0
2015-Aug-27 23:30N 52°24' E 004°52'0 0.0
2015-Aug-27 22:32N 52°24' E 004°52'0 0.0
2015-Aug-27 21:27N 52°24' E 004°52'0 0.0
2015-Aug-27 20:30N 52°24' E 004°52'0 0.0
2015-Aug-27 19:28N 52°24' E 004°52'0 0.0
2015-Aug-27 18:33N 52°24' E 004°52'0 0.0
2015-Aug-27 17:29N 52°24' E 004°52'0 0.0
2015-Aug-27 16:33N 52°24' E 004°52'0 0.0
2015-Aug-27 15:28N 52°24' E 004°52'0 0.0
2015-Aug-27 14:33N 52°24' E 004°52'0 0.0
2015-Aug-27 13:32N 52°24' E 004°52'0 0.0
2015-Aug-27 12:33N 52°24' E 004°52'0 0.0
2015-Aug-27 11:32N 52°24' E 004°52'0 0.0
2015-Aug-27 10:27N 52°24' E 004°52'0 0.0
2015-Aug-27 09:32N 52°24' E 004°52'0 0.0
2015-Aug-27 08:27N 52°24' E 004°52'0 0.0
2015-Aug-27 07:31N 52°24' E 004°52'0 0.0
2015-Aug-27 06:29N 52°24' E 004°52'0 0.0
2015-Aug-27 05:26N 52°24' E 004°52'0 0.0
2015-Aug-27 04:28N 52°24' E 004°52'0 0.0
2015-Aug-27 03:33N 52°24' E 004°52'0 0.0
2015-Aug-27 02:28N 52°24' E 004°52'0 0.0
2015-Aug-27 01:33N 52°24' E 004°52'0 0.0
2015-Aug-27 00:30N 52°24' E 004°52'0 0.0
2015-Aug-26 23:34N 52°24' E 004°52'7 7.4
2015-Aug-26 22:33N 52°27' E 004°41'5 4.8
2015-Aug-26 21:33N 52°28' E 004°34'7 7.4
2015-Aug-26 20:34N 52°28' E 004°21'5 4.9
2015-Aug-26 19:33N 52°29' E 004°14'8 8.1
2015-Aug-26 18:33N 52°35' E 004°05'9 9.0
2015-Aug-26 17:33N 52°44' E 004°01'56 5.6
2015-Aug-26 07:33N 53°31' E 004°51'12 8.4
2015-Aug-26 06:10N 53°35' E 005°09'5 8.1
2015-Aug-26 05:33N 53°36' E 005°17'8 7.5
2015-Aug-26 04:33N 53°39' E 005°29'7 7.1
2015-Aug-26 03:34N 53°41' E 005°41'7 6.8
2015-Aug-26 02:33N 53°43' E 005°52'33 8.2
2015-Aug-25 22:33N 53°53' E 006°45'9 9.3
2015-Aug-25 21:32N 53°55' E 007°01'9 9.0
2015-Aug-25 20:33N 53°57' E 007°15'  
Track history (hours):
 
Tides and Currents Weather Stations Pressure Air Temp Water Temp Dewpoint Dewpoint Depression Visibility Wind Speed Wind Dir Waves Ship Positions

Pride

Last reported at 2015-Sep-04 20:25 UTC. Time now 2015-Sep-04 21:03 UTC.
Position N 58°36' E 012°41'.

Length 88 m; draft 3.5 m.

Type: Cargo ship. MMSI: 236166000.

Date/timePositionNaut miles runAvg speedWind from/ knotsBaromVisibWave heightAir tempDewpointWater temp
2015-Sep-04 20:25N 58°36' E 012°41'910.7
2015-Sep-04 19:33N 58°29' E 012°30'9 8.8
2015-Sep-04 18:33N 58°22' E 012°19'4 4.3
2015-Sep-04 17:34N 58°18' E 012°18'2 2.2
2015-Sep-04 16:33N 58°16' E 012°15'3 3.2
2015-Sep-04 15:33N 58°14' E 012°11'6 5.9
2015-Sep-04 14:33N 58°08' E 012°07'6 5.7
2015-Sep-04 13:33N 58°03' E 012°09'8 8.0
2015-Sep-04 12:33N 57°55' E 012°03'7 7.4
2015-Sep-04 11:33N 57°48' E 012°01'5 5.2
2015-Sep-04 10:33N 57°43' E 011°58'7 7.3
2015-Sep-04 09:33N 57°40' E 011°46'8 7.9
2015-Sep-04 08:33N 57°37' E 011°32'7 6.7
2015-Sep-04 07:33N 57°44' E 011°28'7 6.6
2015-Sep-04 06:34N 57°49' E 011°22'6 6.0
2015-Sep-04 05:33N 57°55' E 011°17'7 6.5
2015-Sep-04 04:33N 58°01' E 011°12'6 6.3
2015-Sep-04 03:33N 58°07' E 011°08'6 6.1
2015-Sep-04 02:33N 58°12' E 011°04'8 8.1
2015-Sep-04 01:33N 58°20' E 010°59'8 8.1
2015-Sep-04 00:33N 58°28' E 010°54'8 7.6
2015-Sep-03 23:33N 58°35' E 010°50'9 8.7
2015-Sep-03 22:33N 58°43' E 010°44'9 9.3
2015-Sep-03 21:33N 58°52' E 010°39'1010.1
2015-Sep-03 20:33N 59°02' E 010°34'7 7.5
2015-Sep-03 19:34N 59°09' E 010°37'1010.3
2015-Sep-03 18:33N 59°20' E 010°35'1010.1
2015-Sep-03 17:33N 59°30' E 010°34'10 9.9
2015-Sep-03 16:32N 59°40' E 010°37'  
2015-Aug-30 22:08N 59°40' E 010°37'610.3
2015-Aug-30 21:34N 59°34' E 010°38'10 9.9
2015-Aug-30 20:34N 59°24' E 010°34'10 9.8
2015-Aug-30 19:33N 59°14' E 010°38'9 9.2
2015-Aug-30 18:34N 59°05' E 010°34'9 8.8
2015-Aug-30 17:33N 58°57' E 010°30'9 9.4
2015-Aug-30 16:34N 58°50' E 010°18'9 8.9
2015-Aug-30 15:33N 58°43' E 010°07'186 9.6
2015-Aug-29 20:15N 56°13' E 006°44'7 9.7
2015-Aug-29 19:33N 56°06' E 006°39'10 9.9
2015-Aug-29 18:33N 55°57' E 006°32'1010.0
2015-Aug-29 17:32N 55°48' E 006°25'1010.0
2015-Aug-29 16:32N 55°39' E 006°18'1010.0
2015-Aug-29 15:32N 55°30' E 006°11'1010.1
2015-Aug-29 14:33N 55°20' E 006°04'1010.2
2015-Aug-29 13:32N 55°11' E 005°57'6110.1
2015-Aug-29 07:33N 54°15' E 005°15'1010.2
2015-Aug-29 06:33N 54°06' E 005°08'1210.2
2015-Aug-29 05:21N 53°54' E 005°01'5910.2
2015-Aug-28 23:32N 53°00' E 004°21'9 9.1
2015-Aug-28 22:33N 52°52' E 004°16'9 8.7
2015-Aug-28 21:33N 52°44' E 004°10'9 8.6
2015-Aug-28 20:34N 52°36' E 004°18'9 9.1
2015-Aug-28 19:33N 52°29' E 004°27'6 6.0
2015-Aug-28 18:33N 52°28' E 004°36'9 8.5
2015-Aug-28 17:33N 52°25' E 004°49'2 1.9
2015-Aug-28 16:32N 52°24' E 004°52'0 0.0
2015-Aug-28 15:26N 52°24' E 004°52'0 0.0
2015-Aug-28 14:31N 52°24' E 004°52'0 0.0
2015-Aug-28 13:31N 52°24' E 004°52'0 0.0
2015-Aug-28 12:34N 52°24' E 004°52'0 0.0
2015-Aug-28 11:26N 52°24' E 004°52'0 0.0
2015-Aug-28 10:27N 52°24' E 004°52'0 0.0
2015-Aug-28 09:33N 52°24' E 004°52'0 0.0
2015-Aug-28 08:29N 52°24' E 004°52'0 0.0
2015-Aug-28 07:31N 52°24' E 004°52'0 0.0
2015-Aug-28 06:29N 52°24' E 004°52'0 0.2
2015-Aug-28 05:33N 52°24' E 004°52'0 0.0
2015-Aug-28 04:30N 52°24' E 004°52'0 0.0
2015-Aug-28 03:33N 52°24' E 004°52'0 0.0
2015-Aug-28 02:28N 52°24' E 004°52'0 0.0
2015-Aug-28 01:28N 52°24' E 004°52'0 0.0
2015-Aug-28 00:33N 52°24' E 004°52'0 0.0
2015-Aug-27 23:30N 52°24' E 004°52'0 0.0
2015-Aug-27 22:32N 52°24' E 004°52'0 0.0
2015-Aug-27 21:27N 52°24' E 004°52'0 0.0
2015-Aug-27 20:30N 52°24' E 004°52'0 0.0
2015-Aug-27 19:28N 52°24' E 004°52'0 0.0
2015-Aug-27 18:33N 52°24' E 004°52'0 0.0
2015-Aug-27 17:29N 52°24' E 004°52'0 0.0
2015-Aug-27 16:33N 52°24' E 004°52'0 0.0
2015-Aug-27 15:28N 52°24' E 004°52'0 0.0
2015-Aug-27 14:33N 52°24' E 004°52'0 0.0
2015-Aug-27 13:32N 52°24' E 004°52'0 0.0
2015-Aug-27 12:33N 52°24' E 004°52'0 0.0
2015-Aug-27 11:32N 52°24' E 004°52'0 0.0
2015-Aug-27 10:27N 52°24' E 004°52'0 0.0
2015-Aug-27 09:32N 52°24' E 004°52'0 0.0
2015-Aug-27 08:27N 52°24' E 004°52'0 0.0
2015-Aug-27 07:31N 52°24' E 004°52'0 0.0
2015-Aug-27 06:29N 52°24' E 004°52'0 0.0
2015-Aug-27 05:26N 52°24' E 004°52'0 0.0
2015-Aug-27 04:28N 52°24' E 004°52'0 0.0
2015-Aug-27 03:33N 52°24' E 004°52'0 0.0
2015-Aug-27 02:28N 52°24' E 004°52'0 0.0
2015-Aug-27 01:33N 52°24' E 004°52'0 0.0
2015-Aug-27 00:30N 52°24' E 004°52'0 0.0
2015-Aug-26 23:34N 52°24' E 004°52'7 7.4
2015-Aug-26 22:33N 52°27' E 004°41'5 4.8
2015-Aug-26 21:33N 52°28' E 004°34'7 7.4
2015-Aug-26 20:34N 52°28' E 004°21'5 4.9
2015-Aug-26 19:33N 52°29' E 004°14'8 8.1
2015-Aug-26 18:33N 52°35' E 004°05'9 9.0
2015-Aug-26 17:33N 52°44' E 004°01'56 5.6
2015-Aug-26 07:33N 53°31' E 004°51'12 8.4
2015-Aug-26 06:10N 53°35' E 005°09'5 8.1
2015-Aug-26 05:33N 53°36' E 005°17'8 7.5
2015-Aug-26 04:33N 53°39' E 005°29'7 7.1
2015-Aug-26 03:34N 53°41' E 005°41'7 6.8
2015-Aug-26 02:33N 53°43' E 005°52'33 8.2
2015-Aug-25 22:33N 53°53' E 006°45'9 9.3
2015-Aug-25 21:32N 53°55' E 007°01'9 9.0
2015-Aug-25 20:33N 53°57' E 007°15'  

Dump ship's entire track history